sensor_id;sensor_type;location;lat;lon;timestamp;pressure;altitude;pressure_sealevel;temperature;humidity
75188;BME280;63762;51.334;22.108;2023-06-22T00:03:42;101820.28;;;23.00;62.33
75188;BME280;63762;51.334;22.108;2023-06-22T00:13:49;101828.58;;;22.68;63.08
75188;BME280;63762;51.334;22.108;2023-06-22T00:23:57;101807.52;;;22.53;63.60
75188;BME280;63762;51.334;22.108;2023-06-22T00:34:04;101812.30;;;22.51;64.11
75188;BME280;63762;51.334;22.108;2023-06-22T00:44:12;101779.38;;;22.43;64.38
75188;BME280;63762;51.334;22.108;2023-06-22T00:54:18;101783.51;;;22.39;65.04
75188;BME280;63762;51.334;22.108;2023-06-22T01:14:43;101785.55;;;22.05;65.79
75188;BME280;63762;51.334;22.108;2023-06-22T01:34:59;101773.34;;;21.75;67.16
75188;BME280;63762;51.334;22.108;2023-06-22T01:45:02;101782.73;;;21.72;67.32
75188;BME280;63762;51.334;22.108;2023-06-22T01:55:03;101796.39;;;21.56;67.61
75188;BME280;63762;51.334;22.108;2023-06-22T02:05:09;101807.29;;;21.40;68.63
75188;BME280;63762;51.334;22.108;2023-06-22T02:15:15;101822.73;;;21.49;69.05
75188;BME280;63762;51.334;22.108;2023-06-22T02:25:22;101833.30;;;21.44;69.08
75188;BME280;63762;51.334;22.108;2023-06-22T02:35:29;101819.29;;;21.47;69.23
75188;BME280;63762;51.334;22.108;2023-06-22T02:45:36;101841.24;;;21.55;69.33
75188;BME280;63762;51.334;22.108;2023-06-22T02:55:43;101837.96;;;21.52;69.12
75188;BME280;63762;51.334;22.108;2023-06-22T03:05:51;101827.50;;;21.47;69.66
75188;BME280;63762;51.334;22.108;2023-06-22T03:15:58;101844.97;;;21.46;70.05
75188;BME280;63762;51.334;22.108;2023-06-22T03:26:05;101848.74;;;21.45;70.59
75188;BME280;63762;51.334;22.108;2023-06-22T03:36:12;101884.36;;;21.53;71.06
75188;BME280;63762;51.334;22.108;2023-06-22T03:46:20;101907.22;;;21.36;72.22
75188;BME280;63762;51.334;22.108;2023-06-22T03:56:26;101903.20;;;21.23;73.06
75188;BME280;63762;51.334;22.108;2023-06-22T04:06:33;101909.98;;;21.44;72.77
75188;BME280;63762;51.334;22.108;2023-06-22T04:16:40;101896.91;;;21.64;72.71
75188;BME280;63762;51.334;22.108;2023-06-22T04:26:48;101899.76;;;21.88;72.29
75188;BME280;63762;51.334;22.108;2023-06-22T04:36:55;101907.87;;;22.06;71.92
75188;BME280;63762;51.334;22.108;2023-06-22T04:47:03;101909.23;;;22.02;72.26
75188;BME280;63762;51.334;22.108;2023-06-22T04:57:09;101904.83;;;22.17;72.32
75188;BME280;63762;51.334;22.108;2023-06-22T05:07:16;101910.95;;;22.03;72.59
75188;BME280;63762;51.334;22.108;2023-06-22T05:17:23;101901.99;;;21.92;73.18
75188;BME280;63762;51.334;22.108;2023-06-22T05:27:30;101909.10;;;22.11;72.75
75188;BME280;63762;51.334;22.108;2023-06-22T05:37:37;101910.67;;;22.30;72.57
75188;BME280;63762;51.334;22.108;2023-06-22T05:47:45;101903.52;;;22.61;71.88
75188;BME280;63762;51.334;22.108;2023-06-22T05:57:52;101903.01;;;22.81;72.03
75188;BME280;63762;51.334;22.108;2023-06-22T06:08:00;101905.23;;;23.10;71.34
75188;BME280;63762;51.334;22.108;2023-06-22T06:18:06;101906.37;;;23.39;71.27
75188;BME280;63762;51.334;22.108;2023-06-22T06:28:13;101900.75;;;23.71;69.63
75188;BME280;63762;51.334;22.108;2023-06-22T06:38:20;101913.89;;;24.00;70.31
75188;BME280;63762;51.334;22.108;2023-06-22T06:48:28;101913.87;;;24.53;69.61
75188;BME280;63762;51.334;22.108;2023-06-22T06:58:34;101912.53;;;24.94;68.00
75188;BME280;63762;51.334;22.108;2023-06-22T07:08:42;101925.91;;;25.34;67.23
75188;BME280;63762;51.334;22.108;2023-06-22T07:18:49;101920.80;;;25.60;66.73
75188;BME280;63762;51.334;22.108;2023-06-22T07:28:56;101932.56;;;25.83;65.58
75188;BME280;63762;51.334;22.108;2023-06-22T07:39:03;101930.45;;;26.15;65.36
75188;BME280;63762;51.334;22.108;2023-06-22T07:49:11;101928.63;;;26.22;65.92
75188;BME280;63762;51.334;22.108;2023-06-22T07:59:17;101948.55;;;26.74;64.28
75188;BME280;63762;51.334;22.108;2023-06-22T08:09:24;101929.61;;;26.92;65.18
75188;BME280;63762;51.334;22.108;2023-06-22T08:19:31;101925.79;;;26.93;64.56
75188;BME280;63762;51.334;22.108;2023-06-22T08:29:39;101918.27;;;27.08;64.94
75188;BME280;63762;51.334;22.108;2023-06-22T08:39:46;101930.36;;;27.28;64.08
75188;BME280;63762;51.334;22.108;2023-06-22T08:49:53;101935.03;;;27.89;60.87
75188;BME280;63762;51.334;22.108;2023-06-22T09:00:00;101949.74;;;27.96;61.57
75188;BME280;63762;51.334;22.108;2023-06-22T09:10:07;101954.76;;;27.79;62.27
75188;BME280;63762;51.334;22.108;2023-06-22T09:20:14;101944.24;;;27.68;62.37
75188;BME280;63762;51.334;22.108;2023-06-22T09:30:21;101955.94;;;27.98;61.28
75188;BME280;63762;51.334;22.108;2023-06-22T09:40:28;101953.99;;;27.92;59.92
75188;BME280;63762;51.334;22.108;2023-06-22T09:50:36;101946.78;;;28.51;57.30
75188;BME280;63762;51.334;22.108;2023-06-22T10:00:42;101946.00;;;28.96;55.12
75188;BME280;63762;51.334;22.108;2023-06-22T10:10:50;101918.32;;;29.09;54.42
75188;BME280;63762;51.334;22.108;2023-06-22T10:20:57;101932.59;;;29.19;52.06
75188;BME280;63762;51.334;22.108;2023-06-22T10:31:04;101947.85;;;28.50;54.49
75188;BME280;63762;51.334;22.108;2023-06-22T10:41:11;101933.21;;;28.82;48.38
75188;BME280;63762;51.334;22.108;2023-06-22T10:51:19;101931.32;;;29.15;50.29
75188;BME280;63762;51.334;22.108;2023-06-22T11:01:25;101927.28;;;29.11;53.82
75188;BME280;63762;51.334;22.108;2023-06-22T11:11:32;101922.54;;;29.44;48.60
75188;BME280;63762;51.334;22.108;2023-06-22T11:21:39;101912.31;;;29.38;51.00
75188;BME280;63762;51.334;22.108;2023-06-22T11:31:46;101917.45;;;29.28;50.20
75188;BME280;63762;51.334;22.108;2023-06-22T11:41:54;101893.77;;;29.45;50.23
75188;BME280;63762;51.334;22.108;2023-06-22T11:52:01;101881.68;;;29.90;50.53
75188;BME280;63762;51.334;22.108;2023-06-22T12:02:09;101881.34;;;30.11;46.90
75188;BME280;63762;51.334;22.108;2023-06-22T12:12:15;101881.42;;;29.98;46.79
75188;BME280;63762;51.334;22.108;2023-06-22T12:22:22;101896.89;;;30.26;44.32
75188;BME280;63762;51.334;22.108;2023-06-22T12:32:29;101904.70;;;30.42;42.95
75188;BME280;63762;51.334;22.108;2023-06-22T12:42:37;101902.50;;;30.50;41.33
75188;BME280;63762;51.334;22.108;2023-06-22T12:52:44;101897.33;;;30.60;39.90
75188;BME280;63762;51.334;22.108;2023-06-22T13:02:51;101895.95;;;30.69;39.34
75188;BME280;63762;51.334;22.108;2023-06-22T13:12:58;101888.15;;;30.91;40.59
75188;BME280;63762;51.334;22.108;2023-06-22T13:23:05;101883.70;;;31.08;37.05
75188;BME280;63762;51.334;22.108;2023-06-22T13:33:12;101896.19;;;30.99;38.02
75188;BME280;63762;51.334;22.108;2023-06-22T13:43:19;101890.96;;;31.09;38.41
75188;BME280;63762;51.334;22.108;2023-06-22T13:53:26;101883.02;;;31.12;36.98
75188;BME280;63762;51.334;22.108;2023-06-22T14:03:33;101862.77;;;31.30;36.32
75188;BME280;63762;51.334;22.108;2023-06-22T14:13:40;101849.52;;;31.25;34.00
75188;BME280;63762;51.334;22.108;2023-06-22T14:23:47;101851.66;;;31.05;35.00
75188;BME280;63762;51.334;22.108;2023-06-22T14:33:55;101859.69;;;31.13;34.74
75188;BME280;63762;51.334;22.108;2023-06-22T14:44:02;101861.05;;;31.04;33.50
75188;BME280;63762;51.334;22.108;2023-06-22T14:54:09;101855.11;;;31.01;33.76
75188;BME280;63762;51.334;22.108;2023-06-22T15:04:16;101854.48;;;30.99;34.16
75188;BME280;63762;51.334;22.108;2023-06-22T15:14:23;101842.57;;;30.92;35.57
75188;BME280;63762;51.334;22.108;2023-06-22T15:24:31;101845.27;;;30.98;34.96
75188;BME280;63762;51.334;22.108;2023-06-22T15:34:38;101854.41;;;30.81;34.07
75188;BME280;63762;51.334;22.108;2023-06-22T15:44:44;101850.31;;;30.59;34.59
75188;BME280;63762;51.334;22.108;2023-06-22T15:54:52;101849.90;;;30.24;34.53
75188;BME280;63762;51.334;22.108;2023-06-22T16:04:59;101847.98;;;30.25;34.81
75188;BME280;63762;51.334;22.108;2023-06-22T16:15:06;101832.44;;;30.48;34.97
75188;BME280;63762;51.334;22.108;2023-06-22T16:25:13;101838.38;;;30.52;35.31
75188;BME280;63762;51.334;22.108;2023-06-22T16:35:21;101819.57;;;30.54;34.79
75188;BME280;63762;51.334;22.108;2023-06-22T16:45:27;101822.39;;;30.09;34.77
75188;BME280;63762;51.334;22.108;2023-06-22T16:55:36;101818.13;;;29.76;36.05
75188;BME280;63762;51.334;22.108;2023-06-22T17:05:42;101815.40;;;29.56;37.74
75188;BME280;63762;51.334;22.108;2023-06-22T17:18:58;101814.63;;;29.36;37.89
75188;BME280;63762;51.334;22.108;2023-06-22T17:29:08;101814.27;;;29.13;39.05
75188;BME280;63762;51.334;22.108;2023-06-22T17:39:13;101815.12;;;28.88;39.53
75188;BME280;63762;51.334;22.108;2023-06-22T17:49:20;101817.26;;;28.53;40.22
75188;BME280;63762;51.334;22.108;2023-06-22T17:59:29;101813.79;;;28.25;40.94
75188;BME280;63762;51.334;22.108;2023-06-22T18:09:33;101808.63;;;27.96;43.67
75188;BME280;63762;51.334;22.108;2023-06-22T18:19:42;101806.36;;;27.65;44.48
75188;BME280;63762;51.334;22.108;2023-06-22T18:29:50;101796.86;;;27.34;45.65
75188;BME280;63762;51.334;22.108;2023-06-22T18:39:55;101809.41;;;27.02;47.03
75188;BME280;63762;51.334;22.108;2023-06-22T18:50:06;101818.12;;;26.72;48.58
75188;BME280;63762;51.334;22.108;2023-06-22T19:00:10;101818.66;;;26.40;50.20
75188;BME280;63762;51.334;22.108;2023-06-22T19:10:23;101823.63;;;26.08;50.88
75188;BME280;63762;51.334;22.108;2023-06-22T19:20:32;101838.05;;;25.75;50.60
75188;BME280;63762;51.334;22.108;2023-06-22T19:30:36;101847.24;;;25.46;51.83
75188;BME280;63762;51.334;22.108;2023-06-22T19:40:39;101830.31;;;25.20;53.62
75188;BME280;63762;51.334;22.108;2023-06-22T19:50:44;101808.34;;;24.98;54.05
75188;BME280;63762;51.334;22.108;2023-06-22T20:00:55;101807.10;;;24.71;54.19
75188;BME280;63762;51.334;22.108;2023-06-22T20:10:59;101801.50;;;24.42;54.86
75188;BME280;63762;51.334;22.108;2023-06-22T20:21:10;101784.58;;;24.08;55.45
75188;BME280;63762;51.334;22.108;2023-06-22T20:31:13;101794.61;;;23.93;55.75
75188;BME280;63762;51.334;22.108;2023-06-22T20:41:20;101794.10;;;23.67;56.61
75188;BME280;63762;51.334;22.108;2023-06-22T20:51:27;101789.44;;;23.45;56.96
75188;BME280;63762;51.334;22.108;2023-06-22T21:01:35;101784.02;;;23.29;57.81
75188;BME280;63762;51.334;22.108;2023-06-22T21:11:41;101775.13;;;23.11;57.68
75188;BME280;63762;51.334;22.108;2023-06-22T21:21:49;101774.66;;;22.91;58.14
75188;BME280;63762;51.334;22.108;2023-06-22T21:31:56;101772.00;;;22.67;58.59
75188;BME280;63762;51.334;22.108;2023-06-22T21:42:03;101769.46;;;22.58;59.36
75188;BME280;63762;51.334;22.108;2023-06-22T21:52:10;101755.91;;;22.40;59.42
75188;BME280;63762;51.334;22.108;2023-06-22T22:02:18;101748.53;;;22.25;59.91
75188;BME280;63762;51.334;22.108;2023-06-22T22:12:24;101759.84;;;22.06;60.17
75188;BME280;63762;51.334;22.108;2023-06-22T22:22:31;101777.48;;;21.87;60.42
75188;BME280;63762;51.334;22.108;2023-06-22T22:32:38;101763.22;;;21.67;62.11
75188;BME280;63762;51.334;22.108;2023-06-22T22:42:45;101763.85;;;21.53;62.57
75188;BME280;63762;51.334;22.108;2023-06-22T22:52:53;101775.63;;;21.38;63.15
75188;BME280;63762;51.334;22.108;2023-06-22T23:03:00;101759.14;;;21.22;63.49
75188;BME280;63762;51.334;22.108;2023-06-22T23:13:07;101729.51;;;21.09;64.23
75188;BME280;63762;51.334;22.108;2023-06-22T23:23:14;101736.63;;;20.94;64.24
75188;BME280;63762;51.334;22.108;2023-06-22T23:33:21;101703.03;;;20.84;64.90
75188;BME280;63762;51.334;22.108;2023-06-22T23:43:28;101707.07;;;20.72;65.39
75188;BME280;63762;51.334;22.108;2023-06-22T23:53:35;101701.90;;;20.61;65.69
